createdAt,value
2022-09-20T00:01:09.831Z,13.48
2022-09-20T00:06:15.818Z,13.67
2022-09-20T00:11:20.759Z,13.68
2022-09-20T00:16:26.723Z,13.44
2022-09-20T00:21:31.426Z,13.42
2022-09-20T00:26:33.496Z,13.13
2022-09-20T00:31:36.902Z,12.78
2022-09-20T00:36:38.798Z,12.54
2022-09-20T00:41:40.899Z,12.60
2022-09-20T00:46:45.398Z,12.35
2022-09-20T00:51:56.099Z,12.15
2022-09-20T00:56:58.258Z,12.50
2022-09-20T01:02:16.875Z,12.24
2022-09-20T01:07:22.505Z,12.12
2022-09-20T01:12:29.652Z,12.20
2022-09-20T01:17:34.910Z,11.97
2022-09-20T01:23:05.462Z,11.90
2022-09-20T01:28:07.778Z,11.81
2022-09-20T01:33:18.580Z,11.39
2022-09-20T01:38:57.883Z,11.00
2022-09-20T01:44:17.138Z,11.01
2022-09-20T01:49:40.646Z,11.20
2022-09-20T01:55:05.375Z,11.27
2022-09-20T02:00:19.677Z,11.21
2022-09-20T02:05:58.483Z,11.27
2022-09-20T02:11:19.867Z,11.18
2022-09-20T02:16:34.031Z,11.07
2022-09-20T02:21:51.369Z,11.06
2022-09-20T02:27:18.226Z,11.23
2022-09-20T02:32:41.499Z,11.38
2022-09-20T02:38:00.258Z,11.86
2022-09-20T02:43:18.056Z,11.34
2022-09-20T02:48:29.997Z,11.02
2022-09-20T02:53:51.853Z,10.96
2022-09-20T02:59:23.139Z,10.97
2022-09-20T03:05:03.519Z,11.12
2022-09-20T03:10:30.094Z,10.92
2022-09-20T03:15:45.546Z,10.78
2022-09-20T03:21:32.601Z,10.95
2022-09-20T03:27:17.727Z,10.71
2022-09-20T03:32:29.870Z,10.87
2022-09-20T03:38:10.827Z,10.60
2022-09-20T03:43:31.112Z,10.80
2022-09-20T03:49:07.029Z,10.71
2022-09-20T03:54:30.826Z,10.49
2022-09-20T03:59:56.927Z,10.45
2022-09-20T04:05:00.871Z,10.29
2022-09-20T04:10:33.848Z,10.33
2022-09-20T04:15:51.196Z,10.42
2022-09-20T04:21:06.267Z,10.23
2022-09-20T04:26:09.133Z,10.58
2022-09-20T04:31:44.215Z,10.32
2022-09-20T04:37:02.920Z,10.61
2022-09-20T04:42:38.402Z,9.92
2022-09-20T04:48:03.730Z,10.08
2022-09-20T04:53:50.559Z,10.12
2022-09-20T04:59:10.948Z,10.16
2022-09-20T05:04:31.472Z,10.06
2022-09-20T05:10:05.012Z,10.18
2022-09-20T05:15:11.855Z,10.23
2022-09-20T05:20:45.071Z,10.19
2022-09-20T05:25:56.040Z,10.10
2022-09-20T05:31:15.739Z,10.04
2022-09-20T05:36:34.566Z,10.10
2022-09-20T05:41:45.549Z,10.04
2022-09-20T05:46:53.332Z,10.16
2022-09-20T05:52:04.605Z,10.68
2022-09-20T05:57:21.579Z,10.76
2022-09-20T06:02:43.268Z,10.72
2022-09-20T06:26:45.551Z,11.47
2022-09-20T06:31:47.640Z,11.66
